Aviation Digital Data Service (ADDS)

Output produced by METARs form (0011 UTC 23 September 2017)
found at http://aviationweather.gov/adds/metars/
 
KDUJ 222320Z 2300/2324 35004KT P6SM SCT250 
     TEMPO 2309/2312 2SM BR 
     FM231300 VRB03KT P6SM SKC